sensor_id;sensor_type;location;lat;lon;timestamp;P1;durP1;ratioP1;P2;durP2;ratioP2
32451;SDS011;45528;52.102;5.242;2023-02-28T00:01:10;6.3;;;2.8;;
32451;SDS011;45528;52.102;5.242;2023-02-28T00:02:47;4.5;;;2.6;;
32451;SDS011;45528;52.102;5.242;2023-02-28T00:04:24;8.2;;;2.9;;
32451;SDS011;45528;52.102;5.242;2023-02-28T00:07:37;5.3;;;3.1;;
32451;SDS011;45528;52.102;5.242;2023-02-28T00:09:14;5.0;;;2.7;;
32451;SDS011;45528;52.102;5.242;2023-02-28T00:10:50;5.3;;;3.0;;
32451;SDS011;45528;52.102;5.242;2023-02-28T00:14:02;5.6;;;3.0;;
32451;SDS011;45528;52.102;5.242;2023-02-28T00:15:38;7.0;;;3.2;;
32451;SDS011;45528;52.102;5.242;2023-02-28T00:17:15;5.8;;;3.0;;
32451;SDS011;45528;52.102;5.242;2023-02-28T00:20:27;8.4;;;3.3;;
32451;SDS011;45528;52.102;5.242;2023-02-28T00:22:03;7.5;;;3.4;;
32451;SDS011;45528;52.102;5.242;2023-02-28T00:23:39;5.7;;;3.5;;
32451;SDS011;45528;52.102;5.242;2023-02-28T00:25:16;6.5;;;3.3;;
32451;SDS011;45528;52.102;5.242;2023-02-28T00:28:32;6.1;;;3.4;;
32451;SDS011;45528;52.102;5.242;2023-02-28T00:30:10;7.2;;;3.6;;
32451;SDS011;45528;52.102;5.242;2023-02-28T00:31:51;6.6;;;3.1;;
32451;SDS011;45528;52.102;5.242;2023-02-28T00:35:05;5.9;;;3.4;;
32451;SDS011;45528;52.102;5.242;2023-02-28T00:36:42;6.5;;;3.1;;
32451;SDS011;45528;52.102;5.242;2023-02-28T00:38:19;9.5;;;3.8;;
32451;SDS011;45528;52.102;5.242;2023-02-28T00:39:55;6.6;;;3.2;;
32451;SDS011;45528;52.102;5.242;2023-02-28T00:43:08;7.0;;;3.3;;
32451;SDS011;45528;52.102;5.242;2023-02-28T00:44:44;5.9;;;3.4;;
32451;SDS011;45528;52.102;5.242;2023-02-28T00:46:20;8.31;;;3.4;;
32451;SDS011;45528;52.102;5.242;2023-02-28T00:49:32;7.7;;;3.8;;
32451;SDS011;45528;52.102;5.242;2023-02-28T00:51:09;6.5;;;3.4;;
32451;SDS011;45528;52.102;5.242;2023-02-28T00:52:45;6.9;;;3.2;;
32451;SDS011;45528;52.102;5.242;2023-02-28T00:55:59;6.9;;;3.2;;
32451;SDS011;45528;52.102;5.242;2023-02-28T00:57:35;9.5;;;3.3;;
32451;SDS011;45528;52.102;5.242;2023-02-28T00:59:11;5.6;;;2.9;;
32451;SDS011;45528;52.102;5.242;2023-02-28T01:00:49;5.11;;;2.9;;
32451;SDS011;45528;52.102;5.242;2023-02-28T01:04:02;5.3;;;3.1;;
32451;SDS011;45528;52.102;5.242;2023-02-28T01:05:38;9.1;;;3.6;;
32451;SDS011;45528;52.102;5.242;2023-02-28T01:07:14;6.3;;;3.4;;
32451;SDS011;45528;52.102;5.242;2023-02-28T01:10:27;9.0;;;3.4;;
32451;SDS011;45528;52.102;5.242;2023-02-28T01:12:04;10.1;;;3.3;;
32451;SDS011;45528;52.102;5.242;2023-02-28T01:13:40;5.9;;;3.2;;
32451;SDS011;45528;52.102;5.242;2023-02-28T01:16:53;5.6;;;3.2;;
32451;SDS011;45528;52.102;5.242;2023-02-28T01:18:29;5.5;;;3.2;;
32451;SDS011;45528;52.102;5.242;2023-02-28T01:20:06;4.2;;;2.8;;
32451;SDS011;45528;52.102;5.242;2023-02-28T01:21:42;5.7;;;3.0;;
32451;SDS011;45528;52.102;5.242;2023-02-28T01:24:55;6.4;;;3.0;;
32451;SDS011;45528;52.102;5.242;2023-02-28T01:26:32;6.5;;;3.3;;
32451;SDS011;45528;52.102;5.242;2023-02-28T01:28:08;5.7;;;3.4;;
32451;SDS011;45528;52.102;5.242;2023-02-28T01:31:20;8.1;;;3.3;;
32451;SDS011;45528;52.102;5.242;2023-02-28T01:32:58;5.4;;;3.0;;
32451;SDS011;45528;52.102;5.242;2023-02-28T01:34:35;5.8;;;2.6;;
32451;SDS011;45528;52.102;5.242;2023-02-28T01:37:51;7.1;;;2.9;;
32451;SDS011;45528;52.102;5.242;2023-02-28T01:39:27;10.4;;;3.4;;
32451;SDS011;45528;52.102;5.242;2023-02-28T01:41:03;6.1;;;3.1;;
32451;SDS011;45528;52.102;5.242;2023-02-28T01:42:40;9.5;;;3.5;;
32451;SDS011;45528;52.102;5.242;2023-02-28T01:47:01;6.3;;;2.6;;
32451;SDS011;45528;52.102;5.242;2023-02-28T01:50:19;7.4;;;3.1;;
32451;SDS011;45528;52.102;5.242;2023-02-28T01:51:58;5.8;;;3.1;;
32451;SDS011;45528;52.102;5.242;2023-02-28T01:53:35;5.7;;;2.9;;
32451;SDS011;45528;52.102;5.242;2023-02-28T01:55:17;8.31;;;3.3;;
32451;SDS011;45528;52.102;5.242;2023-02-28T01:58:40;7.6;;;3.2;;
32451;SDS011;45528;52.102;5.242;2023-02-28T02:00:18;6.4;;;3.1;;
32451;SDS011;45528;52.102;5.242;2023-02-28T02:01:59;6.6;;;2.8;;
32451;SDS011;45528;52.102;5.242;2023-02-28T02:03:36;5.11;;;2.7;;
32451;SDS011;45528;52.102;5.242;2023-02-28T02:06:53;6.5;;;3.0;;
32451;SDS011;45528;52.102;5.242;2023-02-28T02:08:30;5.7;;;3.0;;
32451;SDS011;45528;52.102;5.242;2023-02-28T02:10:10;6.1;;;3.1;;
32451;SDS011;45528;52.102;5.242;2023-02-28T02:13:38;6.9;;;3.1;;
32451;SDS011;45528;52.102;5.242;2023-02-28T02:15:29;5.6;;;3.1;;
32451;SDS011;45528;52.102;5.242;2023-02-28T02:17:14;6.3;;;3.1;;
32451;SDS011;45528;52.102;5.242;2023-02-28T02:19:02;5.5;;;2.8;;
32451;SDS011;45528;52.102;5.242;2023-02-28T02:21:20;5.11;;;2.8;;
32451;SDS011;45528;52.102;5.242;2023-02-28T02:27:16;8.2;;;2.8;;
32451;SDS011;45528;52.102;5.242;2023-02-28T02:29:48;6.3;;;3.1;;
32451;SDS011;45528;52.102;5.242;2023-02-28T02:33:09;4.7;;;3.1;;
32451;SDS011;45528;52.102;5.242;2023-02-28T02:35:27;7.8;;;3.2;;
32451;SDS011;45528;52.102;5.242;2023-02-28T02:37:11;6.8;;;3.3;;
32451;SDS011;45528;52.102;5.242;2023-02-28T02:40:43;7.0;;;3.1;;
32451;SDS011;45528;52.102;5.242;2023-02-28T02:42:31;6.6;;;3.5;;
32451;SDS011;45528;52.102;5.242;2023-02-28T02:44:17;6.5;;;3.3;;
32451;SDS011;45528;52.102;5.242;2023-02-28T02:45:58;8.31;;;3.4;;
32451;SDS011;45528;52.102;5.242;2023-02-28T02:47:40;5.0;;;3.1;;
32451;SDS011;45528;52.102;5.242;2023-02-28T02:51:00;7.7;;;3.3;;
32451;SDS011;45528;52.102;5.242;2023-02-28T02:52:42;9.5;;;3.5;;
32451;SDS011;45528;52.102;5.242;2023-02-28T02:54:33;6.3;;;3.1;;
32451;SDS011;45528;52.102;5.242;2023-02-28T02:56:12;6.7;;;3.0;;
32451;SDS011;45528;52.102;5.242;2023-02-28T02:59:33;6.7;;;3.2;;
32451;SDS011;45528;52.102;5.242;2023-02-28T03:01:14;8.31;;;3.3;;
32451;SDS011;45528;52.102;5.242;2023-02-28T03:02:54;6.0;;;3.3;;
32451;SDS011;45528;52.102;5.242;2023-02-28T03:04:33;7.0;;;3.3;;
32451;SDS011;45528;52.102;5.242;2023-02-28T03:07:54;8.0;;;3.5;;
32451;SDS011;45528;52.102;5.242;2023-02-28T03:09:32;6.7;;;3.2;;
32451;SDS011;45528;52.102;5.242;2023-02-28T03:11:11;7.0;;;2.8;;
32451;SDS011;45528;52.102;5.242;2023-02-28T03:12:51;7.7;;;3.1;;
32451;SDS011;45528;52.102;5.242;2023-02-28T03:16:33;8.81;;;3.3;;
32451;SDS011;45528;52.102;5.242;2023-02-28T03:18:17;7.1;;;3.0;;
32451;SDS011;45528;52.102;5.242;2023-02-28T03:20:04;7.2;;;3.3;;
32451;SDS011;45528;52.102;5.242;2023-02-28T03:21:53;7.4;;;3.2;;
32451;SDS011;45528;52.102;5.242;2023-02-28T03:23:42;6.8;;;3.4;;
32451;SDS011;45528;52.102;5.242;2023-02-28T03:25:28;7.7;;;3.4;;
32451;SDS011;45528;52.102;5.242;2023-02-28T03:28:58;7.7;;;3.4;;
32451;SDS011;45528;52.102;5.242;2023-02-28T03:30:42;8.2;;;3.2;;
32451;SDS011;45528;52.102;5.242;2023-02-28T03:32:26;5.8;;;3.3;;
32451;SDS011;45528;52.102;5.242;2023-02-28T03:34:10;8.31;;;3.4;;
32451;SDS011;45528;52.102;5.242;2023-02-28T03:35:54;7.7;;;3.4;;
32451;SDS011;45528;52.102;5.242;2023-02-28T03:39:17;7.3;;;3.5;;
32451;SDS011;45528;52.102;5.242;2023-02-28T03:40:58;5.5;;;2.9;;
32451;SDS011;45528;52.102;5.242;2023-02-28T03:42:41;5.5;;;3.1;;
32451;SDS011;45528;52.102;5.242;2023-02-28T03:44:22;6.7;;;3.5;;
32451;SDS011;45528;52.102;5.242;2023-02-28T03:46:05;5.3;;;3.1;;
32451;SDS011;45528;52.102;5.242;2023-02-28T03:49:29;5.4;;;3.2;;
32451;SDS011;45528;52.102;5.242;2023-02-28T03:51:10;5.3;;;3.0;;
32451;SDS011;45528;52.102;5.242;2023-02-28T03:52:52;8.0;;;3.4;;
32451;SDS011;45528;52.102;5.242;2023-02-28T03:54:38;5.7;;;3.2;;
32451;SDS011;45528;52.102;5.242;2023-02-28T03:58:05;6.6;;;3.1;;
32451;SDS011;45528;52.102;5.242;2023-02-28T03:59:52;6.2;;;3.5;;
32451;SDS011;45528;52.102;5.242;2023-02-28T04:01:35;8.1;;;3.5;;
32451;SDS011;45528;52.102;5.242;2023-02-28T04:03:16;8.5;;;3.4;;
32451;SDS011;45528;52.102;5.242;2023-02-28T04:06:29;6.5;;;3.0;;
32451;SDS011;45528;52.102;5.242;2023-02-28T04:08:07;5.8;;;2.8;;
32451;SDS011;45528;52.102;5.242;2023-02-28T04:09:44;8.6;;;3.0;;
32451;SDS011;45528;52.102;5.242;2023-02-28T04:11:22;6.8;;;3.4;;
32451;SDS011;45528;52.102;5.242;2023-02-28T04:14:38;7.2;;;3.4;;
32451;SDS011;45528;52.102;5.242;2023-02-28T04:16:14;5.7;;;3.1;;
32451;SDS011;45528;52.102;5.242;2023-02-28T04:17:51;7.3;;;3.2;;
32451;SDS011;45528;52.102;5.242;2023-02-28T04:21:04;6.5;;;3.4;;
32451;SDS011;45528;52.102;5.242;2023-02-28T04:22:41;4.91;;;3.0;;
32451;SDS011;45528;52.102;5.242;2023-02-28T04:24:18;6.4;;;3.1;;
32451;SDS011;45528;52.102;5.242;2023-02-28T04:25:56;8.0;;;3.5;;
32451;SDS011;45528;52.102;5.242;2023-02-28T04:29:10;8.6;;;3.8;;
32451;SDS011;45528;52.102;5.242;2023-02-28T04:30:53;7.2;;;3.9;;
32451;SDS011;45528;52.102;5.242;2023-02-28T04:32:31;7.2;;;3.7;;
32451;SDS011;45528;52.102;5.242;2023-02-28T04:35:43;8.0;;;4.2;;
32451;SDS011;45528;52.102;5.242;2023-02-28T04:37:19;8.2;;;4.2;;
32451;SDS011;45528;52.102;5.242;2023-02-28T04:38:55;8.5;;;3.9;;
32451;SDS011;45528;52.102;5.242;2023-02-28T04:40:32;9.5;;;4.3;;
32451;SDS011;45528;52.102;5.242;2023-02-28T04:43:46;6.6;;;3.6;;
32451;SDS011;45528;52.102;5.242;2023-02-28T04:45:22;6.5;;;3.4;;
32451;SDS011;45528;52.102;5.242;2023-02-28T04:46:58;8.31;;;3.3;;
32451;SDS011;45528;52.102;5.242;2023-02-28T04:50:13;5.2;;;2.7;;
32451;SDS011;45528;52.102;5.242;2023-02-28T04:51:49;6.2;;;3.0;;
32451;SDS011;45528;52.102;5.242;2023-02-28T04:53:26;8.9;;;3.1;;
32451;SDS011;45528;52.102;5.242;2023-02-28T04:56:41;8.9;;;3.1;;
32451;SDS011;45528;52.102;5.242;2023-02-28T04:58:18;6.4;;;3.1;;
32451;SDS011;45528;52.102;5.242;2023-02-28T04:59:54;4.91;;;3.0;;
32451;SDS011;45528;52.102;5.242;2023-02-28T05:01:31;6.6;;;3.1;;
32451;SDS011;45528;52.102;5.242;2023-02-28T05:04:44;6.5;;;3.0;;
32451;SDS011;45528;52.102;5.242;2023-02-28T05:06:21;6.9;;;3.0;;
32451;SDS011;45528;52.102;5.242;2023-02-28T05:07:59;6.9;;;2.9;;
32451;SDS011;45528;52.102;5.242;2023-02-28T05:11:14;5.7;;;2.5;;
32451;SDS011;45528;52.102;5.242;2023-02-28T05:12:52;4.7;;;2.9;;
32451;SDS011;45528;52.102;5.242;2023-02-28T05:14:28;5.6;;;2.6;;
32451;SDS011;45528;52.102;5.242;2023-02-28T05:16:05;4.8;;;2.7;;
32451;SDS011;45528;52.102;5.242;2023-02-28T05:19:19;4.0;;;2.6;;
32451;SDS011;45528;52.102;5.242;2023-02-28T05:20:55;7.4;;;3.1;;
32451;SDS011;45528;52.102;5.242;2023-02-28T05:22:31;6.3;;;2.8;;
32451;SDS011;45528;52.102;5.242;2023-02-28T05:25:47;4.8;;;2.8;;
32451;SDS011;45528;52.102;5.242;2023-02-28T05:27:23;4.8;;;2.8;;
32451;SDS011;45528;52.102;5.242;2023-02-28T05:30:36;5.2;;;2.7;;
32451;SDS011;45528;52.102;5.242;2023-02-28T05:32:12;6.3;;;3.0;;
32451;SDS011;45528;52.102;5.242;2023-02-28T05:33:49;6.7;;;3.1;;
32451;SDS011;45528;52.102;5.242;2023-02-28T05:35:26;6.0;;;2.7;;
32451;SDS011;45528;52.102;5.242;2023-02-28T05:37:02;5.7;;;2.9;;
32451;SDS011;45528;52.102;5.242;2023-02-28T05:40:15;6.0;;;2.9;;
32451;SDS011;45528;52.102;5.242;2023-02-28T05:41:52;5.6;;;3.0;;
32451;SDS011;45528;52.102;5.242;2023-02-28T05:43:28;6.2;;;3.2;;
32451;SDS011;45528;52.102;5.242;2023-02-28T05:46:41;6.0;;;3.0;;
32451;SDS011;45528;52.102;5.242;2023-02-28T05:48:17;4.8;;;3.3;;
32451;SDS011;45528;52.102;5.242;2023-02-28T05:49:53;5.11;;;2.9;;
32451;SDS011;45528;52.102;5.242;2023-02-28T05:53:06;5.5;;;3.3;;
32451;SDS011;45528;52.102;5.242;2023-02-28T05:54:42;6.0;;;3.8;;
32451;SDS011;45528;52.102;5.242;2023-02-28T05:56:18;6.8;;;3.8;;
32451;SDS011;45528;52.102;5.242;2023-02-28T05:57:54;7.7;;;3.7;;
32451;SDS011;45528;52.102;5.242;2023-02-28T06:01:31;7.3;;;4.1;;
32451;SDS011;45528;52.102;5.242;2023-02-28T06:03:08;5.4;;;3.5;;
32451;SDS011;45528;52.102;5.242;2023-02-28T06:04:45;5.4;;;3.7;;
32451;SDS011;45528;52.102;5.242;2023-02-28T06:06:22;7.3;;;4.2;;
32451;SDS011;45528;52.102;5.242;2023-02-28T06:09:34;6.3;;;4.3;;
32451;SDS011;45528;52.102;5.242;2023-02-28T06:11:11;6.8;;;4.3;;
32451;SDS011;45528;52.102;5.242;2023-02-28T06:12:48;8.9;;;4.5;;
32451;SDS011;45528;52.102;5.242;2023-02-28T06:16:00;7.2;;;4.61;;
32451;SDS011;45528;52.102;5.242;2023-02-28T06:17:37;7.1;;;4.91;;
32451;SDS011;45528;52.102;5.242;2023-02-28T06:19:13;7.4;;;5.0;;
32451;SDS011;45528;52.102;5.242;2023-02-28T06:22:28;10.3;;;5.2;;
32451;SDS011;45528;52.102;5.242;2023-02-28T06:24:04;8.9;;;4.41;;
32451;SDS011;45528;52.102;5.242;2023-02-28T06:25:44;8.0;;;5.2;;
32451;SDS011;45528;52.102;5.242;2023-02-28T06:27:20;7.5;;;4.91;;
32451;SDS011;45528;52.102;5.242;2023-02-28T06:30:33;8.4;;;5.0;;
32451;SDS011;45528;52.102;5.242;2023-02-28T06:32:09;10.5;;;5.5;;
32451;SDS011;45528;52.102;5.242;2023-02-28T06:33:45;9.5;;;5.3;;
32451;SDS011;45528;52.102;5.242;2023-02-28T06:36:58;9.5;;;5.3;;
32451;SDS011;45528;52.102;5.242;2023-02-28T06:38:36;12.9;;;6.2;;
32451;SDS011;45528;52.102;5.242;2023-02-28T06:40:14;11.2;;;5.8;;
32451;SDS011;45528;52.102;5.242;2023-02-28T06:41:51;10.7;;;5.3;;
32451;SDS011;45528;52.102;5.242;2023-02-28T06:45:05;10.9;;;6.1;;
32451;SDS011;45528;52.102;5.242;2023-02-28T06:46:43;9.9;;;6.0;;
32451;SDS011;45528;52.102;5.242;2023-02-28T06:48:20;10.21;;;5.4;;
32451;SDS011;45528;52.102;5.242;2023-02-28T06:51:33;9.6;;;5.5;;
32451;SDS011;45528;52.102;5.242;2023-02-28T06:53:09;11.4;;;5.4;;
32451;SDS011;45528;52.102;5.242;2023-02-28T06:54:45;10.0;;;5.4;;
32451;SDS011;45528;52.102;5.242;2023-02-28T06:57:57;9.1;;;5.3;;
32451;SDS011;45528;52.102;5.242;2023-02-28T06:59:34;11.6;;;5.7;;
32451;SDS011;45528;52.102;5.242;2023-02-28T07:01:10;12.1;;;6.7;;
32451;SDS011;45528;52.102;5.242;2023-02-28T07:02:49;9.5;;;5.8;;
32451;SDS011;45528;52.102;5.242;2023-02-28T07:06:01;8.31;;;5.6;;
32451;SDS011;45528;52.102;5.242;2023-02-28T07:07:38;8.0;;;5.4;;
32451;SDS011;45528;52.102;5.242;2023-02-28T07:09:15;8.81;;;5.5;;
32451;SDS011;45528;52.102;5.242;2023-02-28T07:12:28;8.2;;;5.9;;
32451;SDS011;45528;52.102;5.242;2023-02-28T07:14:05;8.4;;;5.5;;
32451;SDS011;45528;52.102;5.242;2023-02-28T07:15:41;9.81;;;5.8;;
32451;SDS011;45528;52.102;5.242;2023-02-28T07:18:53;8.71;;;5.7;;
32451;SDS011;45528;52.102;5.242;2023-02-28T07:20:29;9.1;;;6.5;;
32451;SDS011;45528;52.102;5.242;2023-02-28T07:22:07;8.71;;;5.7;;
32451;SDS011;45528;52.102;5.242;2023-02-28T07:23:43;12.0;;;6.7;;
32451;SDS011;45528;52.102;5.242;2023-02-28T07:26:56;9.4;;;5.4;;
32451;SDS011;45528;52.102;5.242;2023-02-28T07:28:33;10.1;;;6.6;;
32451;SDS011;45528;52.102;5.242;2023-02-28T07:30:09;12.4;;;7.0;;
32451;SDS011;45528;52.102;5.242;2023-02-28T07:33:22;15.6;;;7.3;;
32451;SDS011;45528;52.102;5.242;2023-02-28T07:34:58;9.6;;;6.2;;
32451;SDS011;45528;52.102;5.242;2023-02-28T07:36:34;12.7;;;6.6;;
32451;SDS011;45528;52.102;5.242;2023-02-28T07:39:47;8.2;;;5.8;;
32451;SDS011;45528;52.102;5.242;2023-02-28T07:41:23;10.7;;;6.4;;
32451;SDS011;45528;52.102;5.242;2023-02-28T07:42:59;12.6;;;6.5;;
32451;SDS011;45528;52.102;5.242;2023-02-28T07:44:36;10.7;;;5.9;;
32451;SDS011;45528;52.102;5.242;2023-02-28T07:47:51;8.71;;;5.8;;
32451;SDS011;45528;52.102;5.242;2023-02-28T07:49:29;9.71;;;6.0;;
32451;SDS011;45528;52.102;5.242;2023-02-28T07:51:05;8.0;;;5.3;;
32451;SDS011;45528;52.102;5.242;2023-02-28T07:54:18;8.4;;;5.2;;
32451;SDS011;45528;52.102;5.242;2023-02-28T07:55:54;9.4;;;5.7;;
32451;SDS011;45528;52.102;5.242;2023-02-28T07:57:31;9.6;;;5.9;;
32451;SDS011;45528;52.102;5.242;2023-02-28T08:00:43;9.0;;;5.5;;
32451;SDS011;45528;52.102;5.242;2023-02-28T08:02:20;9.81;;;5.8;;
32451;SDS011;45528;52.102;5.242;2023-02-28T08:03:56;9.1;;;6.2;;
32451;SDS011;45528;52.102;5.242;2023-02-28T08:05:32;10.3;;;5.9;;
32451;SDS011;45528;52.102;5.242;2023-02-28T08:08:44;9.0;;;6.2;;
32451;SDS011;45528;52.102;5.242;2023-02-28T08:10:20;10.21;;;6.0;;
32451;SDS011;45528;52.102;5.242;2023-02-28T08:11:57;10.21;;;6.2;;
32451;SDS011;45528;52.102;5.242;2023-02-28T08:15:09;10.0;;;6.1;;
32451;SDS011;45528;52.102;5.242;2023-02-28T08:16:46;11.1;;;5.8;;
32451;SDS011;45528;52.102;5.242;2023-02-28T08:18:22;7.6;;;5.11;;
32451;SDS011;45528;52.102;5.242;2023-02-28T08:21:36;6.6;;;5.2;;
32451;SDS011;45528;52.102;5.242;2023-02-28T08:23:12;9.4;;;6.1;;
32451;SDS011;45528;52.102;5.242;2023-02-28T08:24:49;10.6;;;6.7;;
32451;SDS011;45528;52.102;5.242;2023-02-28T08:28:01;11.6;;;5.8;;
32451;SDS011;45528;52.102;5.242;2023-02-28T08:29:37;9.71;;;5.6;;
32451;SDS011;45528;52.102;5.242;2023-02-28T08:31:15;8.1;;;5.4;;
32451;SDS011;45528;52.102;5.242;2023-02-28T08:32:53;9.4;;;5.9;;
32451;SDS011;45528;52.102;5.242;2023-02-28T08:36:05;13.3;;;5.6;;
32451;SDS011;45528;52.102;5.242;2023-02-28T08:37:43;8.9;;;4.8;;
32451;SDS011;45528;52.102;5.242;2023-02-28T08:39:19;7.9;;;5.2;;
32451;SDS011;45528;52.102;5.242;2023-02-28T08:42:34;7.9;;;5.2;;
32451;SDS011;45528;52.102;5.242;2023-02-28T08:44:11;9.4;;;4.91;;
32451;SDS011;45528;52.102;5.242;2023-02-28T08:45:50;9.6;;;4.91;;
32451;SDS011;45528;52.102;5.242;2023-02-28T08:47:27;9.4;;;4.7;;
32451;SDS011;45528;52.102;5.242;2023-02-28T08:50:39;6.6;;;4.5;;
32451;SDS011;45528;52.102;5.242;2023-02-28T08:52:15;7.0;;;4.2;;
32451;SDS011;45528;52.102;5.242;2023-02-28T08:53:53;6.4;;;4.41;;
32451;SDS011;45528;52.102;5.242;2023-02-28T08:57:06;6.5;;;4.2;;
32451;SDS011;45528;52.102;5.242;2023-02-28T08:58:42;6.3;;;4.1;;
32451;SDS011;45528;52.102;5.242;2023-02-28T09:00:21;7.3;;;3.8;;
32451;SDS011;45528;52.102;5.242;2023-02-28T09:03:33;7.5;;;4.1;;
32451;SDS011;45528;52.102;5.242;2023-02-28T09:05:10;5.5;;;3.9;;
32451;SDS011;45528;52.102;5.242;2023-02-28T09:06:46;5.0;;;3.8;;
32451;SDS011;45528;52.102;5.242;2023-02-28T09:08:22;7.0;;;4.0;;
32451;SDS011;45528;52.102;5.242;2023-02-28T09:11:35;7.1;;;3.7;;
32451;SDS011;45528;52.102;5.242;2023-02-28T09:13:12;5.6;;;3.8;;
32451;SDS011;45528;52.102;5.242;2023-02-28T09:14:48;5.11;;;3.6;;
32451;SDS011;45528;52.102;5.242;2023-02-28T09:18:01;6.1;;;3.6;;
32451;SDS011;45528;52.102;5.242;2023-02-28T09:19:37;5.8;;;3.3;;
32451;SDS011;45528;52.102;5.242;2023-02-28T09:21:13;5.8;;;3.8;;
32451;SDS011;45528;52.102;5.242;2023-02-28T09:24:28;5.8;;;3.7;;
32451;SDS011;45528;52.102;5.242;2023-02-28T09:26:04;6.5;;;3.9;;
32451;SDS011;45528;52.102;5.242;2023-02-28T09:27:41;5.6;;;3.5;;
32451;SDS011;45528;52.102;5.242;2023-02-28T09:32:31;6.3;;;3.6;;
32451;SDS011;45528;52.102;5.242;2023-02-28T09:35:43;6.0;;;3.0;;
32451;SDS011;45528;52.102;5.242;2023-02-28T09:37:19;5.9;;;3.5;;
32451;SDS011;45528;52.102;5.242;2023-02-28T09:38:55;4.3;;;3.1;;
32451;SDS011;45528;52.102;5.242;2023-02-28T09:42:17;5.0;;;2.9;;
32451;SDS011;45528;52.102;5.242;2023-02-28T09:44:05;6.1;;;2.8;;
32451;SDS011;45528;52.102;5.242;2023-02-28T09:45:50;5.7;;;3.1;;
32451;SDS011;45528;52.102;5.242;2023-02-28T09:47:31;6.2;;;2.9;;
32451;SDS011;45528;52.102;5.242;2023-02-28T09:49:12;7.4;;;2.6;;
32451;SDS011;45528;52.102;5.242;2023-02-28T09:52:36;5.3;;;2.7;;
32451;SDS011;45528;52.102;5.242;2023-02-28T09:54:14;4.5;;;2.5;;
32451;SDS011;45528;52.102;5.242;2023-02-28T09:55:53;5.4;;;2.6;;
32451;SDS011;45528;52.102;5.242;2023-02-28T09:57:35;3.4;;;2.5;;
32451;SDS011;45528;52.102;5.242;2023-02-28T10:01:19;4.3;;;2.31;;
32451;SDS011;45528;52.102;5.242;2023-02-28T10:03:12;3.9;;;2.31;;
32451;SDS011;45528;52.102;5.242;2023-02-28T10:05:02;5.2;;;2.4;;
32451;SDS011;45528;52.102;5.242;2023-02-28T10:06:44;5.6;;;2.0;;
32451;SDS011;45528;52.102;5.242;2023-02-28T10:08:25;3.9;;;2.0;;
32451;SDS011;45528;52.102;5.242;2023-02-28T10:10:07;3.1;;;1.7;;
32451;SDS011;45528;52.102;5.242;2023-02-28T10:13:42;4.61;;;1.7;;
32451;SDS011;45528;52.102;5.242;2023-02-28T10:15:27;3.1;;;1.5;;
32451;SDS011;45528;52.102;5.242;2023-02-28T10:17:08;2.31;;;1.6;;
32451;SDS011;45528;52.102;5.242;2023-02-28T10:18:51;1.9;;;1.3;;
32451;SDS011;45528;52.102;5.242;2023-02-28T10:20:35;2.5;;;1.3;;
32451;SDS011;45528;52.102;5.242;2023-02-28T10:24:01;2.1;;;1.2;;
32451;SDS011;45528;52.102;5.242;2023-02-28T10:25:54;3.3;;;1.2;;
32451;SDS011;45528;52.102;5.242;2023-02-28T10:27:34;4.61;;;2.0;;
32451;SDS011;45528;52.102;5.242;2023-02-28T10:29:10;4.91;;;1.9;;
32451;SDS011;45528;52.102;5.242;2023-02-28T10:32:26;2.0;;;1.4;;
32451;SDS011;45528;52.102;5.242;2023-02-28T10:34:07;2.6;;;1.4;;
32451;SDS011;45528;52.102;5.242;2023-02-28T10:35:47;3.2;;;1.3;;
32451;SDS011;45528;52.102;5.242;2023-02-28T10:37:25;2.0;;;1.4;;
32451;SDS011;45528;52.102;5.242;2023-02-28T10:41:12;2.8;;;1.2;;
32451;SDS011;45528;52.102;5.242;2023-02-28T10:42:55;3.4;;;1.5;;
32451;SDS011;45528;52.102;5.242;2023-02-28T10:44:34;4.2;;;1.5;;
32451;SDS011;45528;52.102;5.242;2023-02-28T10:46:11;2.1;;;1.2;;
32451;SDS011;45528;52.102;5.242;2023-02-28T10:47:52;2.8;;;1.5;;
32451;SDS011;45528;52.102;5.242;2023-02-28T10:51:07;3.4;;;1.5;;
32451;SDS011;45528;52.102;5.242;2023-02-28T10:52:45;2.4;;;1.3;;
32451;SDS011;45528;52.102;5.242;2023-02-28T10:54:23;2.4;;;1.6;;
32451;SDS011;45528;52.102;5.242;2023-02-28T10:56:04;2.0;;;1.3;;
32451;SDS011;45528;52.102;5.242;2023-02-28T10:59:28;4.0;;;1.5;;
32451;SDS011;45528;52.102;5.242;2023-02-28T11:01:10;3.0;;;1.4;;
32451;SDS011;45528;52.102;5.242;2023-02-28T11:02:49;3.4;;;1.4;;
32451;SDS011;45528;52.102;5.242;2023-02-28T11:04:34;3.4;;;1.5;;
32451;SDS011;45528;52.102;5.242;2023-02-28T11:07:54;2.7;;;1.3;;
32451;SDS011;45528;52.102;5.242;2023-02-28T11:09:35;1.7;;;1.3;;
32451;SDS011;45528;52.102;5.242;2023-02-28T11:11:14;1.7;;;1.4;;
32451;SDS011;45528;52.102;5.242;2023-02-28T11:12:53;2.1;;;1.5;;
32451;SDS011;45528;52.102;5.242;2023-02-28T11:16:30;1.7;;;1.4;;
32451;SDS011;45528;52.102;5.242;2023-02-28T11:18:18;2.21;;;1.4;;
32451;SDS011;45528;52.102;5.242;2023-02-28T11:19:59;2.8;;;1.3;;
32451;SDS011;45528;52.102;5.242;2023-02-28T11:21:39;3.1;;;1.5;;
32451;SDS011;45528;52.102;5.242;2023-02-28T11:23:24;3.7;;;1.3;;
32451;SDS011;45528;52.102;5.242;2023-02-28T11:26:46;2.6;;;1.4;;
32451;SDS011;45528;52.102;5.242;2023-02-28T11:28:26;2.0;;;1.3;;
32451;SDS011;45528;52.102;5.242;2023-02-28T11:30:12;2.0;;;1.3;;
32451;SDS011;45528;52.102;5.242;2023-02-28T11:32:01;1.8;;;1.3;;
32451;SDS011;45528;52.102;5.242;2023-02-28T11:33:48;3.4;;;1.5;;
32451;SDS011;45528;52.102;5.242;2023-02-28T11:37:11;4.3;;;1.3;;
32451;SDS011;45528;52.102;5.242;2023-02-28T11:38:51;2.21;;;1.5;;
32451;SDS011;45528;52.102;5.242;2023-02-28T11:40:33;2.21;;;1.3;;
32451;SDS011;45528;52.102;5.242;2023-02-28T11:42:25;2.1;;;1.5;;
32451;SDS011;45528;52.102;5.242;2023-02-28T11:45:17;2.5;;;1.5;;
32451;SDS011;45528;52.102;5.242;2023-02-28T11:47:15;2.7;;;1.4;;
32451;SDS011;45528;52.102;5.242;2023-02-28T11:49:02;2.31;;;1.4;;
32451;SDS011;45528;52.102;5.242;2023-02-28T11:50:54;3.1;;;1.7;;
32451;SDS011;45528;52.102;5.242;2023-02-28T11:52:43;3.3;;;1.4;;
32451;SDS011;45528;52.102;5.242;2023-02-28T11:56:29;1.7;;;1.3;;
32451;SDS011;45528;52.102;5.242;2023-02-28T11:58:41;2.6;;;1.5;;
32451;SDS011;45528;52.102;5.242;2023-02-28T12:00:32;3.9;;;1.4;;
32451;SDS011;45528;52.102;5.242;2023-02-28T12:02:22;2.4;;;1.4;;
32451;SDS011;45528;52.102;5.242;2023-02-28T12:04:04;2.1;;;1.3;;
32451;SDS011;45528;52.102;5.242;2023-02-28T12:05:58;2.0;;;1.3;;
32451;SDS011;45528;52.102;5.242;2023-02-28T12:07:56;2.0;;;1.4;;
32451;SDS011;45528;52.102;5.242;2023-02-28T12:09:47;2.6;;;1.5;;
32451;SDS011;45528;52.102;5.242;2023-02-28T12:11:40;2.4;;;1.4;;
32451;SDS011;45528;52.102;5.242;2023-02-28T12:13:27;1.8;;;1.2;;
32451;SDS011;45528;52.102;5.242;2023-02-28T12:18:25;2.6;;;1.3;;
32451;SDS011;45528;52.102;5.242;2023-02-28T12:20:28;2.0;;;1.3;;
32451;SDS011;45528;52.102;5.242;2023-02-28T12:22:16;3.3;;;1.3;;
32451;SDS011;45528;52.102;5.242;2023-02-28T12:24:08;2.6;;;1.5;;
32451;SDS011;45528;52.102;5.242;2023-02-28T12:26:27;3.8;;;1.4;;
32451;SDS011;45528;52.102;5.242;2023-02-28T12:28:13;2.31;;;1.3;;
32451;SDS011;45528;52.102;5.242;2023-02-28T12:31:35;2.21;;;1.4;;
32451;SDS011;45528;52.102;5.242;2023-02-28T12:33:15;2.7;;;1.5;;
32451;SDS011;45528;52.102;5.242;2023-02-28T12:34:57;3.5;;;1.2;;
32451;SDS011;45528;52.102;5.242;2023-02-28T12:36:40;2.7;;;1.3;;
32451;SDS011;45528;52.102;5.242;2023-02-28T12:40:02;1.8;;;1.3;;
32451;SDS011;45528;52.102;5.242;2023-02-28T12:41:41;1.7;;;1.2;;
32451;SDS011;45528;52.102;5.242;2023-02-28T12:43:22;2.5;;;1.7;;
32451;SDS011;45528;52.102;5.242;2023-02-28T12:45:08;2.5;;;1.7;;
32451;SDS011;45528;52.102;5.242;2023-02-28T12:48:38;3.7;;;1.3;;
32451;SDS011;45528;52.102;5.242;2023-02-28T12:50:18;2.7;;;1.4;;
32451;SDS011;45528;52.102;5.242;2023-02-28T12:51:56;2.9;;;1.4;;
32451;SDS011;45528;52.102;5.242;2023-02-28T12:53:36;3.0;;;1.4;;
32451;SDS011;45528;52.102;5.242;2023-02-28T12:55:27;2.5;;;1.2;;
32451;SDS011;45528;52.102;5.242;2023-02-28T12:59:01;1.7;;;1.4;;
32451;SDS011;45528;52.102;5.242;2023-02-28T13:00:49;1.6;;;1.3;;
32451;SDS011;45528;52.102;5.242;2023-02-28T13:03:41;3.7;;;1.3;;
32451;SDS011;45528;52.102;5.242;2023-02-28T13:05:32;1.6;;;1.3;;
32451;SDS011;45528;52.102;5.242;2023-02-28T13:08:34;2.0;;;1.11;;
32451;SDS011;45528;52.102;5.242;2023-02-28T13:10:39;3.0;;;1.3;;
32451;SDS011;45528;52.102;5.242;2023-02-28T13:12:20;2.0;;;1.2;;